sensor_id;sensor_type;location;lat;lon;timestamp;pressure;altitude;pressure_sealevel;temperature;humidity
63019;BME280;49105;46.046;10.760;2023-01-30T00:01:03;96153.72;;;-2.09;65.90
63019;BME280;49105;46.046;10.760;2023-01-30T00:03:29;96158.50;;;-2.06;65.95
63019;BME280;49105;46.046;10.760;2023-01-30T00:06:07;96146.97;;;-2.04;66.34
63019;BME280;49105;46.046;10.760;2023-01-30T00:08:35;96156.38;;;-2.03;66.22
63019;BME280;49105;46.046;10.760;2023-01-30T00:11:11;96152.97;;;-2.03;66.11
63019;BME280;49105;46.046;10.760;2023-01-30T00:13:38;96146.97;;;-2.04;65.47
63019;BME280;49105;46.046;10.760;2023-01-30T00:16:03;96150.22;;;-2.02;65.45
63019;BME280;49105;46.046;10.760;2023-01-30T00:18:36;96144.47;;;-1.97;65.33
63019;BME280;49105;46.046;10.760;2023-01-30T00:21:11;96147.88;;;-1.96;65.33
63019;BME280;49105;46.046;10.760;2023-01-30T00:23:43;96138.84;;;-2.01;65.76
63019;BME280;49105;46.046;10.760;2023-01-30T00:26:17;96136.97;;;-2.07;65.79
63019;BME280;49105;46.046;10.760;2023-01-30T00:28:43;96139.22;;;-2.04;65.52
63019;BME280;49105;46.046;10.760;2023-01-30T00:31:08;96131.31;;;-1.95;66.01
63019;BME280;49105;46.046;10.760;2023-01-30T00:33:35;96130.72;;;-1.97;65.52
63019;BME280;49105;46.046;10.760;2023-01-30T00:36:08;96126.88;;;-2.02;65.51
63019;BME280;49105;46.046;10.760;2023-01-30T00:38:40;96135.63;;;-2.03;66.13
63019;BME280;49105;46.046;10.760;2023-01-30T00:41:15;96133.41;;;-2.06;66.04
63019;BME280;49105;46.046;10.760;2023-01-30T00:43:41;96129.81;;;-2.05;66.15
63019;BME280;49105;46.046;10.760;2023-01-30T00:46:29;96135.38;;;-2.08;66.41
63019;BME280;49105;46.046;10.760;2023-01-30T00:49:14;96128.94;;;-2.12;66.37
63019;BME280;49105;46.046;10.760;2023-01-30T00:51:42;96128.13;;;-2.12;66.00
63019;BME280;49105;46.046;10.760;2023-01-30T00:54:15;96124.75;;;-2.13;65.94
63019;BME280;49105;46.046;10.760;2023-01-30T00:56:40;96126.34;;;-2.12;65.46
63019;BME280;49105;46.046;10.760;2023-01-30T00:59:18;96134.91;;;-2.11;65.50
63019;BME280;49105;46.046;10.760;2023-01-30T01:01:43;96125.09;;;-2.16;66.38
63019;BME280;49105;46.046;10.760;2023-01-30T01:04:15;96128.69;;;-2.17;66.39
63019;BME280;49105;46.046;10.760;2023-01-30T01:06:40;96125.28;;;-2.17;66.21
63019;BME280;49105;46.046;10.760;2023-01-30T01:09:06;96119.28;;;-2.18;66.22
63019;BME280;49105;46.046;10.760;2023-01-30T01:11:37;96116.50;;;-2.16;65.61
63019;BME280;49105;46.046;10.760;2023-01-30T01:14:12;96112.47;;;-2.19;66.31
63019;BME280;49105;46.046;10.760;2023-01-30T01:16:37;96114.47;;;-2.21;66.63
63019;BME280;49105;46.046;10.760;2023-01-30T01:19:06;96115.63;;;-2.23;65.82
63019;BME280;49105;46.046;10.760;2023-01-30T01:21:43;96111.63;;;-2.26;66.71
63019;BME280;49105;46.046;10.760;2023-01-30T01:24:12;96109.63;;;-2.24;66.05
63019;BME280;49105;46.046;10.760;2023-01-30T01:26:44;96107.69;;;-2.22;65.78
63019;BME280;49105;46.046;10.760;2023-01-30T01:29:18;96092.97;;;-2.15;65.73
63019;BME280;49105;46.046;10.760;2023-01-30T01:31:44;96101.41;;;-2.13;66.23
63019;BME280;49105;46.046;10.760;2023-01-30T01:34:10;96093.38;;;-2.18;65.71
63019;BME280;49105;46.046;10.760;2023-01-30T01:36:40;96093.03;;;-2.30;65.41
63019;BME280;49105;46.046;10.760;2023-01-30T01:42:29;96078.47;;;-2.60;66.15
63019;BME280;49105;46.046;10.760;2023-01-30T01:48:03;96088.19;;;-2.47;66.73
63019;BME280;49105;46.046;10.760;2023-01-30T01:53:11;96070.34;;;-2.42;65.76
63019;BME280;49105;46.046;10.760;2023-01-30T01:55:42;96077.66;;;-2.46;66.61
63019;BME280;49105;46.046;10.760;2023-01-30T01:58:24;96080.16;;;-2.53;66.53
63019;BME280;49105;46.046;10.760;2023-01-30T02:00:55;96072.13;;;-2.58;67.09
63019;BME280;49105;46.046;10.760;2023-01-30T02:03:24;96067.56;;;-2.56;67.08
63019;BME280;49105;46.046;10.760;2023-01-30T02:06:00;96080.59;;;-2.49;66.33
63019;BME280;49105;46.046;10.760;2023-01-30T02:09:05;96079.00;;;-2.50;66.58
63019;BME280;49105;46.046;10.760;2023-01-30T02:11:41;96077.91;;;-2.56;66.95
63019;BME280;49105;46.046;10.760;2023-01-30T02:14:17;96069.88;;;-2.61;66.67
63019;BME280;49105;46.046;10.760;2023-01-30T02:16:52;96072.47;;;-2.61;67.26
63019;BME280;49105;46.046;10.760;2023-01-30T02:33:55;96061.56;;;-2.56;66.02
63019;BME280;49105;46.046;10.760;2023-01-30T02:39:36;96067.00;;;-2.51;66.20
63019;BME280;49105;46.046;10.760;2023-01-30T02:42:28;96066.59;;;-2.55;66.37
63019;BME280;49105;46.046;10.760;2023-01-30T02:45:27;96057.38;;;-2.57;66.36
63019;BME280;49105;46.046;10.760;2023-01-30T02:48:05;96049.84;;;-2.52;66.29
63019;BME280;49105;46.046;10.760;2023-01-30T02:50:42;96040.94;;;-2.50;66.01
63019;BME280;49105;46.046;10.760;2023-01-30T02:53:09;96031.91;;;-2.54;66.32
63019;BME280;49105;46.046;10.760;2023-01-30T02:55:44;96029.78;;;-2.65;66.32
63019;BME280;49105;46.046;10.760;2023-01-30T02:58:18;96032.81;;;-2.76;66.22
63019;BME280;49105;46.046;10.760;2023-01-30T03:09:29;96021.75;;;-2.70;66.36
63019;BME280;49105;46.046;10.760;2023-01-30T03:15:04;96009.31;;;-2.75;67.15
63019;BME280;49105;46.046;10.760;2023-01-30T03:17:55;96005.13;;;-2.90;66.42
63019;BME280;49105;46.046;10.760;2023-01-30T03:20:21;96008.81;;;-3.00;67.49
63019;BME280;49105;46.046;10.760;2023-01-30T03:22:47;96001.38;;;-3.03;67.10
63019;BME280;49105;46.046;10.760;2023-01-30T03:25:18;95987.63;;;-3.03;66.68
63019;BME280;49105;46.046;10.760;2023-01-30T03:27:49;95996.81;;;-3.01;66.82
63019;BME280;49105;46.046;10.760;2023-01-30T03:30:24;95985.94;;;-2.96;66.93
63019;BME280;49105;46.046;10.760;2023-01-30T03:32:59;95993.53;;;-2.94;67.00
63019;BME280;49105;46.046;10.760;2023-01-30T03:35:24;95990.94;;;-2.94;66.66
63019;BME280;49105;46.046;10.760;2023-01-30T03:38:10;95985.31;;;-2.83;67.01
63019;BME280;49105;46.046;10.760;2023-01-30T03:40:35;95986.56;;;-2.79;66.67
63019;BME280;49105;46.046;10.760;2023-01-30T03:43:01;95985.31;;;-2.83;66.54
63019;BME280;49105;46.046;10.760;2023-01-30T03:45:32;95983.88;;;-3.01;67.49
63019;BME280;49105;46.046;10.760;2023-01-30T03:48:07;95984.59;;;-3.07;67.22
63019;BME280;49105;46.046;10.760;2023-01-30T03:50:38;95979.22;;;-3.05;67.42
63019;BME280;49105;46.046;10.760;2023-01-30T03:53:12;95985.84;;;-3.03;67.82
63019;BME280;49105;46.046;10.760;2023-01-30T03:55:44;95987.63;;;-3.03;67.20
63019;BME280;49105;46.046;10.760;2023-01-30T03:58:18;95977.28;;;-3.03;67.47
63019;BME280;49105;46.046;10.760;2023-01-30T04:00:44;95976.03;;;-3.07;67.85
63019;BME280;49105;46.046;10.760;2023-01-30T04:03:09;95980.56;;;-3.09;67.71
63019;BME280;49105;46.046;10.760;2023-01-30T04:05:38;95978.63;;;-3.07;67.93
63019;BME280;49105;46.046;10.760;2023-01-30T04:08:12;95972.38;;;-2.98;66.97
63019;BME280;49105;46.046;10.760;2023-01-30T04:10:40;95972.16;;;-2.96;66.72
63019;BME280;49105;46.046;10.760;2023-01-30T04:13:15;95969.56;;;-2.96;67.39
63019;BME280;49105;46.046;10.760;2023-01-30T04:15:40;95959.06;;;-2.95;67.15
63019;BME280;49105;46.046;10.760;2023-01-30T04:18:12;95941.72;;;-2.94;67.15
63019;BME280;49105;46.046;10.760;2023-01-30T04:20:37;95925.03;;;-2.92;67.16
63019;BME280;49105;46.046;10.760;2023-01-30T04:23:03;95922.88;;;-2.88;66.51
63019;BME280;49105;46.046;10.760;2023-01-30T04:25:37;95921.47;;;-2.91;67.55
63019;BME280;49105;46.046;10.760;2023-01-30T04:28:04;95914.34;;;-3.04;66.59
63019;BME280;49105;46.046;10.760;2023-01-30T04:30:38;95912.44;;;-3.10;67.75
63019;BME280;49105;46.046;10.760;2023-01-30T04:33:04;95909.31;;;-3.05;67.54
63019;BME280;49105;46.046;10.760;2023-01-30T04:35:38;95911.31;;;-3.07;67.62
63019;BME280;49105;46.046;10.760;2023-01-30T04:38:07;95911.75;;;-3.04;67.13
63019;BME280;49105;46.046;10.760;2023-01-30T04:40:49;95911.38;;;-3.01;67.71
63019;BME280;49105;46.046;10.760;2023-01-30T04:43:22;95904.22;;;-2.98;67.55
63019;BME280;49105;46.046;10.760;2023-01-30T04:45:54;95896.41;;;-3.20;67.74
63019;BME280;49105;46.046;10.760;2023-01-30T04:48:25;95895.41;;;-3.34;67.23
63019;BME280;49105;46.046;10.760;2023-01-30T04:51:00;95908.81;;;-3.45;67.10
63019;BME280;49105;46.046;10.760;2023-01-30T04:53:35;95905.34;;;-3.52;67.68
63019;BME280;49105;46.046;10.760;2023-01-30T04:59:22;95902.84;;;-3.45;68.31
63019;BME280;49105;46.046;10.760;2023-01-30T05:01:57;95892.56;;;-3.39;67.10
63019;BME280;49105;46.046;10.760;2023-01-30T05:04:31;95895.88;;;-3.30;67.61
63019;BME280;49105;46.046;10.760;2023-01-30T05:07:06;95892.03;;;-3.19;67.72
63019;BME280;49105;46.046;10.760;2023-01-30T05:09:31;95896.47;;;-3.13;67.38
63019;BME280;49105;46.046;10.760;2023-01-30T05:11:57;95905.13;;;-3.21;67.84
63019;BME280;49105;46.046;10.760;2023-01-30T05:14:22;95914.06;;;-3.38;68.01
63019;BME280;49105;46.046;10.760;2023-01-30T05:16:57;95915.59;;;-3.44;67.54
63019;BME280;49105;46.046;10.760;2023-01-30T05:19:22;95919.53;;;-3.48;68.22
63019;BME280;49105;46.046;10.760;2023-01-30T05:21:48;95911.41;;;-3.45;68.63
63019;BME280;49105;46.046;10.760;2023-01-30T05:24:22;95915.25;;;-3.41;67.61
63019;BME280;49105;46.046;10.760;2023-01-30T05:26:54;95907.50;;;-3.41;67.55
63019;BME280;49105;46.046;10.760;2023-01-30T05:29:22;95907.56;;;-3.49;68.60
63019;BME280;49105;46.046;10.760;2023-01-30T05:31:48;95919.78;;;-3.58;68.49
63019;BME280;49105;46.046;10.760;2023-01-30T05:34:23;95918.88;;;-3.65;68.53
63019;BME280;49105;46.046;10.760;2023-01-30T05:36:48;95926.13;;;-3.60;68.16
63019;BME280;49105;46.046;10.760;2023-01-30T05:39:14;95928.97;;;-3.26;68.50
63019;BME280;49105;46.046;10.760;2023-01-30T05:41:48;95921.75;;;-3.30;67.94
63019;BME280;49105;46.046;10.760;2023-01-30T05:44:23;95921.22;;;-3.40;67.73
63019;BME280;49105;46.046;10.760;2023-01-30T05:46:48;95928.81;;;-3.39;68.47
63019;BME280;49105;46.046;10.760;2023-01-30T05:49:20;95926.75;;;-3.43;67.55
63019;BME280;49105;46.046;10.760;2023-01-30T05:51:46;95930.16;;;-3.58;68.85
63019;BME280;49105;46.046;10.760;2023-01-30T05:54:12;95935.66;;;-3.61;68.47
63019;BME280;49105;46.046;10.760;2023-01-30T05:56:37;95928.50;;;-3.59;69.03
63019;BME280;49105;46.046;10.760;2023-01-30T05:59:03;95927.19;;;-3.55;68.52
63019;BME280;49105;46.046;10.760;2023-01-30T06:01:47;95931.91;;;-3.43;68.46
63019;BME280;49105;46.046;10.760;2023-01-30T06:04:19;95924.81;;;-3.41;68.71
63019;BME280;49105;46.046;10.760;2023-01-30T06:06:50;95930.31;;;-3.44;67.82
63019;BME280;49105;46.046;10.760;2023-01-30T06:09:25;95931.13;;;-3.44;68.35
63019;BME280;49105;46.046;10.760;2023-01-30T06:11:50;95931.72;;;-3.42;68.36
63019;BME280;49105;46.046;10.760;2023-01-30T06:14:22;95930.25;;;-3.36;68.31
63019;BME280;49105;46.046;10.760;2023-01-30T06:17:06;95934.25;;;-3.34;68.45
63019;BME280;49105;46.046;10.760;2023-01-30T06:19:32;95945.03;;;-3.30;68.61
63019;BME280;49105;46.046;10.760;2023-01-30T06:21:58;95939.88;;;-3.30;68.44
63019;BME280;49105;46.046;10.760;2023-01-30T06:24:32;95935.78;;;-3.25;67.72
63019;BME280;49105;46.046;10.760;2023-01-30T06:27:03;95925.50;;;-3.18;68.63
63019;BME280;49105;46.046;10.760;2023-01-30T06:29:29;95931.56;;;-3.11;67.58
63019;BME280;49105;46.046;10.760;2023-01-30T06:32:04;95916.47;;;-3.07;67.55
63019;BME280;49105;46.046;10.760;2023-01-30T06:35:03;95904.94;;;-3.05;68.42
63019;BME280;49105;46.046;10.760;2023-01-30T06:37:29;95911.38;;;-3.01;67.91
63019;BME280;49105;46.046;10.760;2023-01-30T06:39:54;95916.84;;;-3.10;67.88
63019;BME280;49105;46.046;10.760;2023-01-30T06:42:20;95918.38;;;-3.16;68.41
63019;BME280;49105;46.046;10.760;2023-01-30T06:44:52;95920.22;;;-3.10;68.27
63019;BME280;49105;46.046;10.760;2023-01-30T06:47:24;95920.75;;;-3.00;68.40
63019;BME280;49105;46.046;10.760;2023-01-30T06:49:49;95925.47;;;-2.88;67.79
63019;BME280;49105;46.046;10.760;2023-01-30T06:52:26;95932.44;;;-2.89;67.61
63019;BME280;49105;46.046;10.760;2023-01-30T06:55:01;95936.56;;;-2.94;67.27
63019;BME280;49105;46.046;10.760;2023-01-30T06:57:32;95931.66;;;-3.04;67.78
63019;BME280;49105;46.046;10.760;2023-01-30T06:59:58;95929.59;;;-3.09;67.80
63019;BME280;49105;46.046;10.760;2023-01-30T07:02:27;95921.56;;;-3.14;68.04
63019;BME280;49105;46.046;10.760;2023-01-30T07:05:03;95929.44;;;-3.07;68.75
63019;BME280;49105;46.046;10.760;2023-01-30T07:07:36;95937.91;;;-2.98;67.91
63019;BME280;49105;46.046;10.760;2023-01-30T07:10:10;95935.41;;;-2.92;68.64
63019;BME280;49105;46.046;10.760;2023-01-30T07:12:44;95938.69;;;-2.83;68.03
63019;BME280;49105;46.046;10.760;2023-01-30T07:15:19;95941.78;;;-2.73;67.68
63019;BME280;49105;46.046;10.760;2023-01-30T07:17:45;95949.44;;;-2.65;68.03
63019;BME280;49105;46.046;10.760;2023-01-30T07:20:23;95945.94;;;-2.57;67.70
63019;BME280;49105;46.046;10.760;2023-01-30T07:23:01;95928.31;;;-2.47;67.47
63019;BME280;49105;46.046;10.760;2023-01-30T07:25:40;95916.06;;;-2.38;67.50
63019;BME280;49105;46.046;10.760;2023-01-30T07:28:11;95907.53;;;-2.54;66.80
63019;BME280;49105;46.046;10.760;2023-01-30T07:30:46;95904.97;;;-2.68;67.67
63019;BME280;49105;46.046;10.760;2023-01-30T07:33:24;95915.72;;;-2.86;67.60
63019;BME280;49105;46.046;10.760;2023-01-30T07:35:55;95905.84;;;-2.97;67.74
63019;BME280;49105;46.046;10.760;2023-01-30T07:38:30;95884.75;;;-2.94;67.79
63019;BME280;49105;46.046;10.760;2023-01-30T07:41:04;95872.69;;;-2.87;67.73
63019;BME280;49105;46.046;10.760;2023-01-30T07:43:30;95862.47;;;-2.74;68.15
63019;BME280;49105;46.046;10.760;2023-01-30T07:46:04;95860.25;;;-2.56;68.09
63019;BME280;49105;46.046;10.760;2023-01-30T07:48:30;95863.72;;;-2.48;67.29
63019;BME280;49105;46.046;10.760;2023-01-30T07:50:55;95863.41;;;-2.60;67.88
63019;BME280;49105;46.046;10.760;2023-01-30T07:53:21;95855.94;;;-2.70;67.90
63019;BME280;49105;46.046;10.760;2023-01-30T07:55:56;95872.47;;;-2.71;68.63
63019;BME280;49105;46.046;10.760;2023-01-30T07:58:21;95872.09;;;-2.68;67.62
63019;BME280;49105;46.046;10.760;2023-01-30T08:00:56;95873.50;;;-2.65;68.35
63019;BME280;49105;46.046;10.760;2023-01-30T08:03:30;95880.13;;;-2.63;68.66
63019;BME280;49105;46.046;10.760;2023-01-30T08:05:56;95873.19;;;-2.56;68.29
63019;BME280;49105;46.046;10.760;2023-01-30T08:08:28;95862.97;;;-2.42;67.49
63019;BME280;49105;46.046;10.760;2023-01-30T08:10:56;95854.44;;;-2.36;68.08
63019;BME280;49105;46.046;10.760;2023-01-30T08:13:27;95855.09;;;-2.34;68.23
63019;BME280;49105;46.046;10.760;2023-01-30T08:15:53;95841.94;;;-2.33;67.55
63019;BME280;49105;46.046;10.760;2023-01-30T08:18:28;95851.72;;;-2.28;68.05
63019;BME280;49105;46.046;10.760;2023-01-30T08:21:03;95849.22;;;-2.21;68.09
63019;BME280;49105;46.046;10.760;2023-01-30T08:23:30;95842.31;;;-2.08;67.14
63019;BME280;49105;46.046;10.760;2023-01-30T08:26:04;95844.53;;;-2.05;67.75
63019;BME280;49105;46.046;10.760;2023-01-30T08:28:39;95840.38;;;-1.99;67.06
63019;BME280;49105;46.046;10.760;2023-01-30T08:31:12;95842.25;;;-1.86;67.41
63019;BME280;49105;46.046;10.760;2023-01-30T08:33:44;95840.38;;;-1.71;67.37
63019;BME280;49105;46.046;10.760;2023-01-30T08:36:09;95835.25;;;-1.58;67.31
63019;BME280;49105;46.046;10.760;2023-01-30T08:38:34;95829.31;;;-1.52;67.04
63019;BME280;49105;46.046;10.760;2023-01-30T08:41:06;95819.34;;;-1.48;67.51
63019;BME280;49105;46.046;10.760;2023-01-30T08:43:33;95820.56;;;-1.44;67.22
63019;BME280;49105;46.046;10.760;2023-01-30T08:46:01;95820.22;;;-1.34;67.12
63019;BME280;49105;46.046;10.760;2023-01-30T08:48:30;95811.25;;;-1.25;67.30
63019;BME280;49105;46.046;10.760;2023-01-30T08:51:04;95803.91;;;-1.15;66.85
63019;BME280;49105;46.046;10.760;2023-01-30T08:53:35;95803.50;;;-1.12;66.93
63019;BME280;49105;46.046;10.760;2023-01-30T08:56:01;95792.13;;;-1.11;66.53
63019;BME280;49105;46.046;10.760;2023-01-30T08:58:26;95801.94;;;-1.06;66.68
63019;BME280;49105;46.046;10.760;2023-01-30T09:00:58;95800.34;;;-1.01;66.54
63019;BME280;49105;46.046;10.760;2023-01-30T09:03:32;95796.16;;;-0.95;66.58
63019;BME280;49105;46.046;10.760;2023-01-30T09:05:58;95805.97;;;-0.90;66.07
63019;BME280;49105;46.046;10.760;2023-01-30T09:08:23;95807.19;;;-0.86;66.29
63019;BME280;49105;46.046;10.760;2023-01-30T09:10:59;95789.38;;;-0.89;65.79
63019;BME280;49105;46.046;10.760;2023-01-30T09:13:36;95793.16;;;-0.98;66.29
63019;BME280;49105;46.046;10.760;2023-01-30T09:16:11;95804.31;;;-1.05;66.21
63019;BME280;49105;46.046;10.760;2023-01-30T09:18:45;95797.13;;;-1.09;66.37
63019;BME280;49105;46.046;10.760;2023-01-30T09:21:12;95804.72;;;-1.08;66.24
63019;BME280;49105;46.046;10.760;2023-01-30T09:23:37;95792.13;;;-1.11;66.72
63019;BME280;49105;46.046;10.760;2023-01-30T09:26:04;95784.34;;;-1.11;66.16
63019;BME280;49105;46.046;10.760;2023-01-30T09:28:30;95779.19;;;-0.97;66.50
63019;BME280;49105;46.046;10.760;2023-01-30T09:31:02;95784.81;;;-0.81;66.20
63019;BME280;49105;46.046;10.760;2023-01-30T09:33:36;95778.81;;;-0.68;65.74
63019;BME280;49105;46.046;10.760;2023-01-30T09:36:11;95780.03;;;-0.64;65.78
63019;BME280;49105;46.046;10.760;2023-01-30T09:38:37;95774.63;;;-0.56;66.11
63019;BME280;49105;46.046;10.760;2023-01-30T09:44:26;95762.84;;;-0.38;65.91
63019;BME280;49105;46.046;10.760;2023-01-30T09:47:13;95773.22;;;-0.25;65.25
63019;BME280;49105;46.046;10.760;2023-01-30T09:53:05;95758.63;;;-0.26;65.44
63019;BME280;49105;46.046;10.760;2023-01-30T09:55:38;95751.44;;;-0.24;65.53
63019;BME280;49105;46.046;10.760;2023-01-30T09:58:15;95744.22;;;-0.15;65.07
63019;BME280;49105;46.046;10.760;2023-01-30T10:00:45;95744.00;;;-0.07;65.49
63019;BME280;49105;46.046;10.760;2023-01-30T10:03:35;95739.59;;;0.00;64.94
63019;BME280;49105;46.046;10.760;2023-01-30T10:06:13;95722.75;;;0.03;65.16
63019;BME280;49105;46.046;10.760;2023-01-30T10:11:45;95709.91;;;0.21;64.91
63019;BME280;49105;46.046;10.760;2023-01-30T10:14:32;95693.22;;;0.35;64.35
63019;BME280;49105;46.046;10.760;2023-01-30T10:19:58;95693.94;;;0.49;63.92
63019;BME280;49105;46.046;10.760;2023-01-30T10:27:33;95683.94;;;0.53;64.53
63019;BME280;49105;46.046;10.760;2023-01-30T10:30:02;95679.66;;;0.65;64.09
63019;BME280;49105;46.046;10.760;2023-01-30T10:35:19;95637.59;;;0.93;63.57
63019;BME280;49105;46.046;10.760;2023-01-30T10:38:01;95613.84;;;1.08;63.68
63019;BME280;49105;46.046;10.760;2023-01-30T10:41:04;95606.13;;;1.19;63.02
63019;BME280;49105;46.046;10.760;2023-01-30T10:43:46;95620.25;;;1.30;62.80
63019;BME280;49105;46.046;10.760;2023-01-30T10:46:34;95631.44;;;1.37;62.57
63019;BME280;49105;46.046;10.760;2023-01-30T10:49:16;95628.44;;;1.34;62.30
63019;BME280;49105;46.046;10.760;2023-01-30T10:52:05;95617.00;;;1.35;62.20
63019;BME280;49105;46.046;10.760;2023-01-30T10:54:54;95595.66;;;1.44;62.11
63019;BME280;49105;46.046;10.760;2023-01-30T10:57:49;95584.06;;;1.59;61.98
63019;BME280;49105;46.046;10.760;2023-01-30T11:00:41;95580.88;;;1.75;62.36
63019;BME280;49105;46.046;10.760;2023-01-30T11:03:37;95571.44;;;1.92;61.66
63019;BME280;49105;46.046;10.760;2023-01-30T11:06:21;95559.38;;;2.10;60.69
63019;BME280;49105;46.046;10.760;2023-01-30T11:08:59;95571.25;;;2.24;60.14
63019;BME280;49105;46.046;10.760;2023-01-30T11:11:45;95571.38;;;2.29;60.15
63019;BME280;49105;46.046;10.760;2023-01-30T11:14:12;95563.59;;;2.41;59.88
63019;BME280;49105;46.046;10.760;2023-01-30T11:16:52;95562.47;;;2.48;59.95
63019;BME280;49105;46.046;10.760;2023-01-30T11:19:21;95556.47;;;2.60;59.40
63019;BME280;49105;46.046;10.760;2023-01-30T11:22:00;95551.25;;;2.71;59.50
63019;BME280;49105;46.046;10.760;2023-01-30T11:24:43;95520.38;;;2.80;59.31
63019;BME280;49105;46.046;10.760;2023-01-30T11:30:35;95499.59;;;2.97;59.10
63019;BME280;49105;46.046;10.760;2023-01-30T11:35:56;95499.25;;;3.17;58.96
63019;BME280;49105;46.046;10.760;2023-01-30T11:38:24;95489.22;;;3.26;58.99
63019;BME280;49105;46.046;10.760;2023-01-30T11:43:46;95452.56;;;3.37;58.70
63019;BME280;49105;46.046;10.760;2023-01-30T11:46:18;95456.31;;;3.41;58.08
63019;BME280;49105;46.046;10.760;2023-01-30T11:48:54;95447.53;;;3.47;58.43
63019;BME280;49105;46.046;10.760;2023-01-30T11:51:28;95438.88;;;3.59;58.37
63019;BME280;49105;46.046;10.760;2023-01-30T11:54:05;95449.97;;;3.66;57.67
63019;BME280;49105;46.046;10.760;2023-01-30T11:56:35;95436.22;;;3.70;57.76
63019;BME280;49105;46.046;10.760;2023-01-30T11:59:16;95432.91;;;3.75;57.72
63019;BME280;49105;46.046;10.760;2023-01-30T12:01:42;95413.88;;;3.80;57.82
63019;BME280;49105;46.046;10.760;2023-01-30T12:04:27;95416.81;;;3.83;57.24
63019;BME280;49105;46.046;10.760;2023-01-30T12:07:22;95404.34;;;3.90;57.52
63019;BME280;49105;46.046;10.760;2023-01-30T12:09:57;95401.66;;;4.02;57.48
63019;BME280;49105;46.046;10.760;2023-01-30T12:12:42;95407.22;;;4.06;56.91
63019;BME280;49105;46.046;10.760;2023-01-30T12:15:30;95407.47;;;4.04;56.55
63019;BME280;49105;46.046;10.760;2023-01-30T12:18:43;95409.31;;;4.04;57.06
63019;BME280;49105;46.046;10.760;2023-01-30T12:21:05;95390.47;;;4.07;56.92
63019;BME280;49105;46.046;10.760;2023-01-30T12:23:45;95380.56;;;4.09;57.04
63019;BME280;49105;46.046;10.760;2023-01-30T12:26:23;95374.38;;;4.15;56.75
63019;BME280;49105;46.046;10.760;2023-01-30T12:31:34;95375.88;;;4.28;56.61
63019;BME280;49105;46.046;10.760;2023-01-30T12:34:04;95371.53;;;4.33;56.14
63019;BME280;49105;46.046;10.760;2023-01-30T12:42:36;95355.53;;;4.52;54.75
63019;BME280;49105;46.046;10.760;2023-01-30T12:47:52;95334.72;;;4.62;55.66
63019;BME280;49105;46.046;10.760;2023-01-30T12:53:34;95333.63;;;4.80;55.00
63019;BME280;49105;46.046;10.760;2023-01-30T12:56:16;95338.75;;;4.91;54.65
63019;BME280;49105;46.046;10.760;2023-01-30T13:12:50;95304.50;;;5.25;53.99
63019;BME280;49105;46.046;10.760;2023-01-30T13:15:34;95306.59;;;5.23;54.06
63019;BME280;49105;46.046;10.760;2023-01-30T13:18:16;95296.66;;;5.25;54.29
63019;BME280;49105;46.046;10.760;2023-01-30T13:20:58;95298.28;;;5.31;54.19
63019;BME280;49105;46.046;10.760;2023-01-30T13:26:04;95295.72;;;5.36;53.54
63019;BME280;49105;46.046;10.760;2023-01-30T13:31:46;95287.88;;;5.41;53.64
63019;BME280;49105;46.046;10.760;2023-01-30T13:34:40;95277.38;;;5.41;53.06
63019;BME280;49105;46.046;10.760;2023-01-30T13:37:18;95265.06;;;5.42;53.40
63019;BME280;49105;46.046;10.760;2023-01-30T13:40:14;95266.88;;;5.41;53.21
63019;BME280;49105;46.046;10.760;2023-01-30T13:42:52;95260.06;;;5.40;53.33
63019;BME280;49105;46.046;10.760;2023-01-30T13:45:26;95259.78;;;5.37;53.51
63019;BME280;49105;46.046;10.760;2023-01-30T13:48:29;95248.44;;;5.31;52.98
63019;BME280;49105;46.046;10.760;2023-01-30T13:54:02;95256.16;;;5.16;51.95
63019;BME280;49105;46.046;10.760;2023-01-30T13:56:35;95246.44;;;5.16;52.16
63019;BME280;49105;46.046;10.760;2023-01-30T14:07:19;95235.00;;;5.01;52.38
63019;BME280;49105;46.046;10.760;2023-01-30T14:13:02;95244.31;;;4.86;52.82
63019;BME280;49105;46.046;10.760;2023-01-30T14:15:36;95247.41;;;4.83;52.74
63019;BME280;49105;46.046;10.760;2023-01-30T14:18:26;95250.81;;;4.84;52.45
63019;BME280;49105;46.046;10.760;2023-01-30T14:21:12;95239.84;;;4.87;52.62
63019;BME280;49105;46.046;10.760;2023-01-30T14:23:59;95234.13;;;4.90;52.55
63019;BME280;49105;46.046;10.760;2023-01-30T14:37:44;95230.16;;;4.87;52.62
63019;BME280;49105;46.046;10.760;2023-01-30T14:46:05;95245.75;;;4.77;52.08
63019;BME280;49105;46.046;10.760;2023-01-30T14:51:23;95236.31;;;4.76;51.73
63019;BME280;49105;46.046;10.760;2023-01-30T14:56:50;95240.41;;;4.67;51.80
63019;BME280;49105;46.046;10.760;2023-01-30T15:07:38;95243.38;;;4.32;51.99
63019;BME280;49105;46.046;10.760;2023-01-30T15:21:43;95254.28;;;4.23;51.83
63019;BME280;49105;46.046;10.760;2023-01-30T15:27:49;95251.63;;;4.02;52.14
63019;BME280;49105;46.046;10.760;2023-01-30T15:33:23;95259.75;;;3.83;52.74
63019;BME280;49105;46.046;10.760;2023-01-30T15:35:48;95275.28;;;3.73;52.96
63019;BME280;49105;46.046;10.760;2023-01-30T15:38:33;95256.97;;;3.73;52.93
63019;BME280;49105;46.046;10.760;2023-01-30T15:41:05;95271.88;;;3.72;52.85
63019;BME280;49105;46.046;10.760;2023-01-30T15:51:36;95265.91;;;3.43;53.48
63019;BME280;49105;46.046;10.760;2023-01-30T15:54:10;95268.59;;;3.32;53.72
63019;BME280;49105;46.046;10.760;2023-01-30T15:56:43;95293.28;;;3.24;54.15
63019;BME280;49105;46.046;10.760;2023-01-30T15:59:37;95283.44;;;3.14;54.35
63019;BME280;49105;46.046;10.760;2023-01-30T16:02:10;95274.72;;;3.09;54.22
63019;BME280;49105;46.046;10.760;2023-01-30T16:04:37;95287.16;;;3.02;54.22
63019;BME280;49105;46.046;10.760;2023-01-30T16:07:15;95299.47;;;2.89;54.45
63019;BME280;49105;46.046;10.760;2023-01-30T16:09:54;95298.78;;;2.82;54.75
63019;BME280;49105;46.046;10.760;2023-01-30T16:12:26;95286.75;;;2.81;54.71
63019;BME280;49105;46.046;10.760;2023-01-30T16:15:01;95273.91;;;2.80;54.80
63019;BME280;49105;46.046;10.760;2023-01-30T16:17:29;95286.69;;;2.64;55.06
63019;BME280;49105;46.046;10.760;2023-01-30T16:20:02;95296.03;;;2.48;55.12
63019;BME280;49105;46.046;10.760;2023-01-30T16:25:50;95319.44;;;2.32;55.74